Fremont, NE

2:14 AM CST on March 05, 2015 (GMT -0600)
Fremont Municipal | Change Station
CLOSE
Current Station
Airport
Location: Fremont,
Elevation: 1204 ft
Nearby Weather Stations

Elev 1204 ft 41.45 °N, 96.52 °W | Updated 19 minutes ago

Clear
Clear
4 °F
Feels Like 4 °F
N
0
Wind Variable Wind from North

Today
High -- | Low -- °F
--% Chance of Precip.
Yesterday
High -- | Low -- °F
Precip. -- in
6:54 AM 6:21 PM
Full, 100% visible
Pressure 30.48 in
Visibility 10.0 miles
Clouds Clear
Dew Point -3 °F
Humidity 73%
Rainfall 0.00 in
Snow Depth Not available.
UV 0 out of 12
Pollen 1.10 out of 12
Air Quality Not available.
Flu Activity Not available.
METAR KFET 050755Z AUTO 00000KT 10SM CLR M16/M20 A3048 RMK AO2 T11571196

More Conditions Fewer Conditions

Pressure 30.48 in
Visibility 10.0 miles
Clouds Clear
Dew Point -3 °F
Humidity 73%
Rainfall 0.00 in
Snow Depth Not available.
UV 0 out of 12
Pollen 1.10 out of 12
Air Quality Not available.
Flu Activity Not available.
METAR KFET 050755Z AUTO 00000KT 10SM CLR M16/M20 A3048 RMK AO2 T11571196

More Conditions Fewer Conditions

10-Day Weather Forecast

Almanac

Astronomy

Mar. 05, 2015 Rise Set
Actual Time
Civil Twilight
Nautical Twilight
Astronomical Twilight
Moon
Length of Visible Light
Length of Day
Tomorrow will be .
, % of the Moon is Illuminated

Today's Extremes

State Highs State Lows

Community

WunderPhotos

Upload Photos

1,802,704 photos uploaded!

WunderBlogs® & News

Nearby

Air Quality

  Air Quality AQ Index Pollutant
Not available.

Snow Depth

Station Depth Elevation

Earthquake Activity

City Distance Mag. Time & Date
Minimum magnitude displayed is 2.5.

Coastal Water Temperatures

Place Temperature

Nearby Weather Stations